Time;durP1;ratioP1;P1;durP2;ratioP2;P2;SDS_P1;SDS_P2;PMS_P1;PMS_P2;Temp;Humidity;BMP_temperature;BMP_pressure;BME280_temperature;BME280_humidity;BME280_pressure;Samples;Min_cycle;Max_cycle;Signal;HPM_P1;HPM_P2
2022/09/21 00:02:15;;;;;;;1.65;1.30;;;20.90;62.30;;;;;;5044654;28;20029;-58
2022/09/21 00:04:40;;;;;;;4.88;1.90;;;20.80;62.30;;;;;;5042555;28;20024;-58
2022/09/21 00:07:06;;;;;;;2.33;1.30;;;20.80;62.30;;;;;;5044504;28;20025;-58
2022/09/21 00:09:31;;;;;;;2.78;1.30;;;20.80;62.30;;;;;;5041492;28;20052;-58
2022/09/21 00:11:57;;;;;;;4.72;1.40;;;20.80;62.30;;;;;;5044403;28;20037;-58
2022/09/21 00:14:23;;;;;;;3.55;1.40;;;20.80;62.40;;;;;;5046007;28;20405;-58
2022/09/21 00:16:48;;;;;;;3.22;1.20;;;20.80;62.40;;;;;;5044053;28;20512;-58
2022/09/21 00:19:15;;;;;;;3.30;1.40;;;20.80;62.40;;;;;;5045053;28;20045;-58
2022/09/21 00:21:41;;;;;;;4.95;1.63;;;20.80;62.40;;;;;;5044856;28;20033;-58
2022/09/21 00:24:07;;;;;;;4.25;1.58;;;20.70;62.30;;;;;;5041055;28;20037;-58
2022/09/21 00:26:32;;;;;;;3.53;1.50;;;20.80;62.40;;;;;;5041278;28;20040;-58
2022/09/21 00:28:59;;;;;;;2.47;1.35;;;20.80;62.40;;;;;;5042373;28;20123;-58
2022/09/21 00:31:25;;;;;;;3.25;1.40;;;20.70;62.30;;;;;;5044454;28;20120;-58
2022/09/21 00:33:51;;;;;;;3.15;1.60;;;20.70;62.30;;;;;;5044630;28;20615;-58
2022/09/21 00:36:18;;;;;;;3.88;1.33;;;20.70;62.40;;;;;;5043302;28;20067;-58
2022/09/21 00:38:45;;;;;;;2.85;1.42;;;20.70;62.40;;;;;;5044142;28;20097;-58
2022/09/21 00:41:11;;;;;;;2.80;1.50;;;20.70;62.40;;;;;;5043363;28;20041;-58
2022/09/21 00:43:39;;;;;;;2.33;1.40;;;20.70;62.40;;;;;;5044381;28;20033;-58
2022/09/21 00:46:20;;;;;;;2.53;1.33;;;20.70;62.50;;;;;;5041051;28;20052;-59
2022/09/21 00:48:46;;;;;;;2.90;1.35;;;20.70;62.40;;;;;;5042201;28;20500;-58
2022/09/21 00:51:12;;;;;;;3.05;1.20;;;20.70;62.50;;;;;;5044749;28;20324;-58
2022/09/21 00:53:37;;;;;;;2.58;1.33;;;20.70;62.50;;;;;;5040672;28;20045;-58
2022/09/21 00:56:03;;;;;;;3.28;1.45;;;20.70;62.50;;;;;;5042575;28;20120;-58
2022/09/21 00:58:33;;;;;;;2.55;1.50;;;20.60;62.50;;;;;;5041989;28;20550;-58
2022/09/21 01:00:59;;;;;;;2.75;1.48;;;20.70;62.50;;;;;;5042013;28;20099;-58
2022/09/21 01:03:24;;;;;;;2.22;1.30;;;20.60;62.50;;;;;;5040666;28;20025;-58
2022/09/21 01:05:50;;;;;;;2.67;1.30;;;20.60;62.50;;;;;;5043757;28;20029;-58
2022/09/21 01:08:16;;;;;;;2.60;1.33;;;20.60;62.50;;;;;;5043020;28;20025;-58
2022/09/21 01:11:21;;;;;;;4.22;1.30;;;20.60;62.50;;;;;;5026534;28;20025;-58
2022/09/21 01:14:15;;;;;;;1.70;1.17;;;20.60;62.60;;;;;;4999860;28;20109;-58
2022/09/21 01:17:01;;;;;;;3.35;1.27;;;20.60;62.50;;;;;;4984168;28;20463;-58
2022/09/21 01:20:00;;;;;;;3.40;1.50;;;20.60;62.60;;;;;;4982244;28;20048;-58
2022/09/21 01:22:57;;;;;;;2.30;1.50;;;20.60;62.60;;;;;;4989527;28;20029;-58
2022/09/21 01:25:26;;;;;;;2.55;1.30;;;20.60;62.60;;;;;;4988304;28;20111;-58
2022/09/21 01:27:57;;;;;;;3.10;1.25;;;20.60;62.60;;;;;;4999554;28;20045;-59
2022/09/21 01:30:23;;;;;;;4.15;1.45;;;20.60;62.70;;;;;;5001073;28;20435;-59
2022/09/21 01:32:58;;;;;;;2.03;1.30;;;20.50;62.60;;;;;;4984615;28;20069;-58
2022/09/21 01:35:56;;;;;;;2.60;1.40;;;20.50;62.60;;;;;;4998187;28;20046;-58
2022/09/21 01:38:25;;;;;;;4.15;1.38;;;20.50;62.60;;;;;;4980699;28;20034;-58
2022/09/21 01:40:53;;;;;;;2.65;1.35;;;20.50;62.60;;;;;;4997566;28;20069;-58
2022/09/21 01:43:24;;;;;;;2.58;1.40;;;20.50;62.60;;;;;;4971510;28;20463;-58
2022/09/21 01:45:50;;;;;;;2.40;1.30;;;20.50;62.60;;;;;;4975051;28;20546;-58
2022/09/21 01:48:16;;;;;;;2.08;1.10;;;20.50;62.60;;;;;;5008322;28;20070;-58
2022/09/21 01:50:47;;;;;;;1.90;1.25;;;20.50;62.60;;;;;;5022441;28;20052;-58
2022/09/21 01:53:35;;;;;;;2.00;1.25;;;20.50;62.70;;;;;;5041858;28;20401;-59
2022/09/21 01:56:06;;;;;;;2.45;1.33;;;20.50;62.70;;;;;;5023646;28;20045;-58
2022/09/21 01:58:38;;;;;;;3.33;1.50;;;20.50;62.70;;;;;;5024620;28;20034;-58
2022/09/21 02:01:04;;;;;;;3.03;1.40;;;20.40;62.60;;;;;;5040799;28;20022;-58
2022/09/21 02:04:00;;;;;;;2.20;1.25;;;20.40;62.70;;;;;;5039909;28;20366;-58
2022/09/21 02:06:26;;;;;;;3.30;1.70;;;20.40;62.70;;;;;;5041313;28;20116;-58
2022/09/21 02:08:52;;;;;;;1.83;1.20;;;20.40;62.70;;;;;;5041232;28;20486;-58
2022/09/21 02:11:18;;;;;;;3.05;1.35;;;20.40;62.70;;;;;;5041286;28;20037;-58
2022/09/21 02:13:45;;;;;;;2.00;1.30;;;20.40;62.70;;;;;;5041900;28;20481;-58
2022/09/21 02:16:31;;;;;;;2.40;1.40;;;20.40;62.70;;;;;;5041592;28;20076;-58
2022/09/21 02:19:36;;;;;;;2.08;1.38;;;20.40;62.80;;;;;;5039308;28;20162;-58
2022/09/21 02:22:15;;;;;;;2.15;1.17;;;20.40;62.70;;;;;;5032877;28;20037;-58
2022/09/21 02:25:09;;;;;;;2.08;1.25;;;20.40;62.80;;;;;;5041579;28;20105;-58
2022/09/21 02:27:54;;;;;;;2.45;1.35;;;20.40;62.70;;;;;;5040718;28;20028;-58
2022/09/21 02:30:21;;;;;;;2.72;1.30;;;20.40;62.80;;;;;;5024343;28;20561;-58
2022/09/21 02:32:53;;;;;;;1.92;1.20;;;20.40;62.80;;;;;;5025481;28;20405;-58
2022/09/21 02:35:44;;;;;;;2.45;1.20;;;20.40;62.80;;;;;;5039619;28;20029;-58
2022/09/21 02:38:19;;;;;;;2.60;1.30;;;20.30;62.80;;;;;;5039274;28;20017;-58
2022/09/21 02:41:22;;;;;;;2.05;1.27;;;20.30;62.80;;;;;;5040529;28;20391;-58
2022/09/21 02:43:50;;;;;;;2.40;1.20;;;20.30;62.80;;;;;;4999974;28;20123;-58
2022/09/21 02:46:38;;;;;;;2.60;1.27;;;20.30;62.80;;;;;;4984718;28;20061;-58
2022/09/21 02:49:07;;;;;;;2.17;1.30;;;20.30;62.80;;;;;;4985166;28;20050;-58
2022/09/21 02:51:35;;;;;;;1.83;1.10;;;20.30;62.80;;;;;;4986585;28;20042;-58
2022/09/21 02:54:03;;;;;;;2.90;1.38;;;20.30;62.80;;;;;;5000424;28;20038;-58
2022/09/21 02:56:29;;;;;;;2.33;1.17;;;20.30;62.90;;;;;;4984885;28;20041;-58
2022/09/21 02:58:58;;;;;;;2.53;1.33;;;20.30;62.90;;;;;;4984586;28;20058;-58
2022/09/21 03:01:24;;;;;;;1.90;1.20;;;20.30;62.90;;;;;;4970037;28;20042;-58
2022/09/21 03:03:50;;;;;;;2.33;1.23;;;20.30;62.90;;;;;;4970548;28;20026;-58
2022/09/21 03:06:16;;;;;;;3.90;1.40;;;20.20;62.90;;;;;;5002208;28;20030;-58
2022/09/21 03:08:42;;;;;;;2.63;1.60;;;20.30;62.90;;;;;;5001877;28;20030;-58
2022/09/21 03:11:09;;;;;;;2.38;1.40;;;20.20;62.90;;;;;;4999477;28;20048;-58
2022/09/21 03:13:35;;;;;;;2.47;1.40;;;20.20;62.90;;;;;;5001736;28;20857;-58
2022/09/21 03:16:03;;;;;;;2.20;1.20;;;20.20;62.90;;;;;;5000880;28;20124;-58
2022/09/21 03:18:28;;;;;;;2.20;1.30;;;20.20;62.90;;;;;;5035175;28;20037;-58
2022/09/21 03:20:54;;;;;;;3.33;1.73;;;20.20;62.90;;;;;;5043778;28;20021;-58
2022/09/21 03:23:19;;;;;;;2.15;1.10;;;20.20;62.90;;;;;;5040624;28;20035;-58
2022/09/21 03:25:45;;;;;;;2.65;1.40;;;20.20;62.90;;;;;;5039807;28;20108;-58
2022/09/21 03:28:12;;;;;;;2.85;1.55;;;20.20;62.90;;;;;;5042218;28;20049;-58
2022/09/21 03:30:38;;;;;;;2.58;1.40;;;20.20;63.00;;;;;;5042357;28;20064;-58
2022/09/21 03:33:04;;;;;;;2.72;1.50;;;20.20;63.00;;;;;;5045527;28;20048;-58
2022/09/21 03:35:30;;;;;;;3.38;1.45;;;20.20;63.00;;;;;;5042682;28;20037;-58
2022/09/21 03:37:56;;;;;;;2.60;1.40;;;20.20;63.00;;;;;;5043819;28;20414;-58
2022/09/21 03:40:22;;;;;;;1.70;1.27;;;20.20;63.00;;;;;;5046743;28;20026;-57
2022/09/21 03:42:48;;;;;;;3.65;1.40;;;20.20;63.00;;;;;;5042174;28;20033;-58
2022/09/21 03:45:13;;;;;;;1.77;1.30;;;20.20;63.00;;;;;;5047062;28;20025;-58
2022/09/21 03:47:39;;;;;;;1.65;1.30;;;20.20;63.10;;;;;;5040339;28;20033;-58
2022/09/21 03:50:05;;;;;;;2.35;1.30;;;20.10;63.00;;;;;;5046146;28;20027;-58
2022/09/21 03:52:31;;;;;;;2.40;1.30;;;20.10;64.10;;;;;;5045509;28;20051;-58
2022/09/21 03:54:57;;;;;;;2.00;1.50;;;20.10;63.10;;;;;;5042095;28;20646;-58
2022/09/21 03:57:22;;;;;;;3.10;1.40;;;20.10;63.10;;;;;;5042087;28;20553;-58
2022/09/21 03:59:48;;;;;;;2.10;1.35;;;20.10;63.10;;;;;;5044109;28;20493;-58
2022/09/21 04:02:14;;;;;;;2.92;1.30;;;20.10;63.00;;;;;;5040049;28;20102;-59
2022/09/21 04:04:40;;;;;;;3.67;1.60;;;20.10;63.00;;;;;;5044285;28;20032;-58
2022/09/21 04:07:06;;;;;;;1.75;1.30;;;20.10;63.10;;;;;;5044584;28;20021;-58
2022/09/21 04:09:32;;;;;;;2.13;1.30;;;20.10;63.20;;;;;;5041438;28;20457;-58
2022/09/21 04:11:57;;;;;;;2.00;1.10;;;20.10;63.10;;;;;;5042001;28;20445;-58
2022/09/21 04:14:23;;;;;;;2.50;1.40;;;20.10;63.10;;;;;;5042203;28;20068;-58
2022/09/21 04:16:50;;;;;;;1.95;1.23;;;20.00;63.10;;;;;;5044710;28;20036;-58
2022/09/21 04:19:16;;;;;;;2.08;1.20;;;20.00;64.10;;;;;;5040505;28;20087;-58
2022/09/21 04:21:42;;;;;;;1.65;1.20;;;20.00;63.10;;;;;;5046605;28;20051;-58
2022/09/21 04:24:08;;;;;;;1.98;1.40;;;20.00;63.10;;;;;;5043142;28;20025;-58
2022/09/21 04:26:33;;;;;;;2.80;1.48;;;20.00;63.10;;;;;;5040850;28;20060;-58
2022/09/21 04:28:59;;;;;;;2.50;1.30;;;20.00;63.10;;;;;;5041932;28;20383;-58
2022/09/21 04:31:25;;;;;;;2.90;1.50;;;20.00;63.10;;;;;;5042554;28;20409;-58
2022/09/21 04:33:52;;;;;;;2.35;1.42;;;20.00;63.20;;;;;;5041768;28;20021;-58
2022/09/21 04:36:20;;;;;;;2.08;1.40;;;20.00;63.10;;;;;;5046164;28;20049;-58
2022/09/21 04:38:45;;;;;;;1.67;1.27;;;20.00;63.10;;;;;;5042686;28;20052;-58
2022/09/21 04:41:11;;;;;;;2.80;1.42;;;20.00;63.10;;;;;;5043265;28;20037;-58
2022/09/21 04:43:37;;;;;;;1.67;1.20;;;20.00;63.10;;;;;;5044111;28;20037;-58
2022/09/21 04:46:10;;;;;;;1.98;1.30;;;19.90;63.10;;;;;;5039785;28;20052;-58
2022/09/21 04:48:36;;;;;;;3.05;1.50;;;19.90;63.10;;;;;;5048862;28;20540;-58
2022/09/21 04:51:02;;;;;;;2.00;1.30;;;19.90;64.20;;;;;;5047775;28;20025;-58
2022/09/21 04:53:28;;;;;;;2.08;1.40;;;19.90;63.10;;;;;;5047758;28;20108;-58
2022/09/21 04:55:54;;;;;;;3.45;1.50;;;20.00;63.20;;;;;;5046877;28;20044;-58
2022/09/21 04:58:22;;;;;;;2.17;1.40;;;19.90;63.20;;;;;;5046437;28;20017;-58
2022/09/21 05:00:50;;;;;;;2.10;1.40;;;19.90;63.20;;;;;;5048009;28;20123;-58
2022/09/21 05:03:16;;;;;;;1.90;1.38;;;19.90;63.20;;;;;;5046431;28;20509;-58
2022/09/21 05:05:48;;;;;;;3.00;1.30;;;19.90;63.20;;;;;;5046680;28;20034;-58
2022/09/21 05:08:14;;;;;;;1.33;1.20;;;19.90;63.20;;;;;;5047745;28;20033;-58
2022/09/21 05:10:40;;;;;;;2.58;1.27;;;19.90;63.20;;;;;;5037471;28;20083;-58
2022/09/21 05:13:05;;;;;;;3.10;1.50;;;19.90;63.20;;;;;;5042395;28;20028;-58
2022/09/21 05:15:31;;;;;;;2.78;1.48;;;19.90;63.30;;;;;;5046399;28;20057;-58
2022/09/21 05:17:57;;;;;;;4.95;1.58;;;19.90;63.40;;;;;;5042816;28;20040;-58
2022/09/21 05:20:23;;;;;;;4.47;1.58;;;19.90;63.50;;;;;;5041132;28;20032;-60
2022/09/21 05:22:48;;;;;;;2.95;1.40;;;20.00;63.70;;;;;;5045704;28;20091;-59
2022/09/21 05:25:14;;;;;;;3.25;1.42;;;19.90;63.50;;;;;;5046675;28;20048;-59
2022/09/21 05:27:40;;;;;;;3.30;1.40;;;19.90;63.60;;;;;;5046117;28;20075;-60
2022/09/21 05:30:06;;;;;;;2.72;1.20;;;19.90;63.60;;;;;;5049698;28;20025;-60
2022/09/21 05:32:48;;;;;;;3.72;1.38;;;19.90;63.60;;;;;;5040678;28;20112;-60
2022/09/21 05:35:53;;;;;;;2.92;1.38;;;19.90;63.60;;;;;;5037036;28;20041;-60
2022/09/21 05:38:20;;;;;;;2.33;1.27;;;19.90;63.90;;;;;;5039572;28;20033;-60
2022/09/21 05:40:46;;;;;;;2.70;1.50;;;20.00;63.80;;;;;;5044058;28;20398;-58
2022/09/21 05:43:12;;;;;;;4.93;1.50;;;19.90;63.80;;;;;;5045034;28;20039;-59
2022/09/21 05:45:41;;;;;;;16.75;1.45;;;19.90;63.70;;;;;;5044812;28;20017;-59
2022/09/21 05:48:16;;;;;;;6.68;1.60;;;19.90;63.70;;;;;;5029732;28;20038;-59
2022/09/21 05:51:02;;;;;;;3.25;1.50;;;19.80;63.70;;;;;;5043167;28;20021;-59
2022/09/21 05:53:47;;;;;;;2.58;1.27;;;19.80;63.70;;;;;;5045104;28;20032;-59
2022/09/21 05:56:18;;;;;;;6.97;1.63;;;19.80;63.80;;;;;;5044739;28;20132;-59
2022/09/21 05:59:08;;;;;;;3.47;1.33;;;19.80;63.80;;;;;;5044996;28;20029;-59
2022/09/21 06:01:54;;;;;;;5.43;1.63;;;19.80;63.70;;;;;;5044474;28;20382;-59
2022/09/21 06:04:20;;;;;;;4.07;1.40;;;19.80;63.80;;;;;;5045850;28;20537;-59
2022/09/21 06:06:46;;;;;;;4.00;1.52;;;19.80;63.70;;;;;;5045303;28;20017;-59
2022/09/21 06:09:11;;;;;;;3.20;1.42;;;19.80;63.70;;;;;;5046250;28;20033;-59
2022/09/21 06:11:37;;;;;;;4.57;1.67;;;19.80;63.70;;;;;;5045898;28;20029;-59
2022/09/21 06:14:03;;;;;;;7.60;1.55;;;19.80;63.70;;;;;;5045864;28;20115;-59
2022/09/21 06:16:38;;;;;;;5.15;1.60;;;19.70;63.60;;;;;;5044615;28;20033;-59
2022/09/21 06:19:04;;;;;;;6.18;1.30;;;19.70;63.60;;;;;;5044443;28;20057;-59
2022/09/21 06:21:30;;;;;;;3.92;1.50;;;19.70;63.70;;;;;;5045547;28;20087;-60
2022/09/21 06:23:55;;;;;;;8.73;1.80;;;19.70;63.70;;;;;;5044533;28;20450;-59
2022/09/21 06:26:21;;;;;;;4.47;1.60;;;19.70;63.60;;;;;;5045664;28;20036;-59
2022/09/21 06:28:46;;;;;;;3.97;1.42;;;19.70;63.60;;;;;;5046259;28;20029;-59
2022/09/21 06:31:12;;;;;;;5.75;1.50;;;19.70;63.60;;;;;;5045497;28;20052;-59
2022/09/21 06:33:38;;;;;;;4.88;1.50;;;19.70;63.60;;;;;;5045460;28;20096;-59
2022/09/21 06:36:03;;;;;;;5.05;1.67;;;19.70;63.60;;;;;;5044457;28;20037;-59
2022/09/21 06:38:29;;;;;;;4.47;1.48;;;19.60;63.50;;;;;;5045769;28;20474;-59
2022/09/21 06:40:55;;;;;;;5.22;1.70;;;19.70;63.50;;;;;;5047070;28;20086;-59
2022/09/21 06:43:20;;;;;;;2.83;1.50;;;19.60;63.50;;;;;;5045171;28;20028;-59
2022/09/21 06:45:57;;;;;;;4.50;1.73;;;19.60;63.50;;;;;;5045212;28;20501;-59
2022/09/21 06:48:23;;;;;;;4.30;1.50;;;19.60;63.50;;;;;;5043683;28;20028;-59
2022/09/21 06:50:49;;;;;;;7.60;1.80;;;19.70;63.50;;;;;;5044358;28;20041;-59
2022/09/21 06:53:14;;;;;;;2.95;1.60;;;19.70;63.50;;;;;;5045996;28;20028;-59
2022/09/21 06:55:40;;;;;;;4.90;1.80;;;19.60;63.40;;;;;;5046249;28;20409;-59
2022/09/21 06:58:06;;;;;;;2.92;1.60;;;19.60;63.40;;;;;;5046125;28;20393;-59
2022/09/21 07:00:31;;;;;;;2.88;1.40;;;19.60;63.40;;;;;;5045841;28;20032;-59
2022/09/21 07:02:57;;;;;;;4.80;1.60;;;19.60;63.40;;;;;;5045601;28;20086;-59
2022/09/21 07:05:23;;;;;;;6.32;1.77;;;19.60;63.40;;;;;;5046512;28;20032;-59
2022/09/21 07:07:48;;;;;;;6.00;2.00;;;19.60;63.40;;;;;;5048580;28;20037;-59
2022/09/21 07:10:14;;;;;;;4.55;1.73;;;19.60;63.40;;;;;;5049118;28;20051;-59
2022/09/21 07:12:40;;;;;;;4.68;1.55;;;19.60;63.40;;;;;;5049573;28;20103;-59
2022/09/21 07:15:06;;;;;;;4.35;1.83;;;19.60;63.40;;;;;;5045620;28;20029;-59
2022/09/21 07:17:36;;;;;;;3.28;1.80;;;19.60;63.30;;;;;;5049591;28;20090;-59
2022/09/21 07:20:02;;;;;;;5.57;1.63;;;19.60;63.30;;;;;;5045596;28;20489;-59
2022/09/21 07:22:28;;;;;;;3.90;1.65;;;19.60;63.30;;;;;;5049307;28;20032;-59
2022/09/21 07:24:54;;;;;;;4.45;1.58;;;19.60;63.30;;;;;;5046163;28;20056;-59
2022/09/21 07:27:20;;;;;;;3.85;1.80;;;19.50;63.30;;;;;;5048996;28;20607;-59
2022/09/21 07:29:46;;;;;;;5.15;1.63;;;19.60;63.30;;;;;;5048385;28;20082;-59
2022/09/21 07:32:12;;;;;;;3.17;1.60;;;19.50;63.30;;;;;;5048871;28;20029;-59
2022/09/21 07:34:38;;;;;;;4.55;1.70;;;19.60;63.30;;;;;;5048912;28;20045;-59
2022/09/21 07:37:03;;;;;;;4.60;1.80;;;19.50;63.30;;;;;;5049061;28;20048;-59
2022/09/21 07:39:29;;;;;;;4.80;1.70;;;19.50;63.30;;;;;;5049775;28;20017;-59
2022/09/21 07:41:57;;;;;;;3.55;1.55;;;19.50;63.20;;;;;;5048746;28;20398;-59
2022/09/21 07:44:23;;;;;;;4.53;1.70;;;19.50;63.30;;;;;;5049455;28;20083;-59
2022/09/21 07:46:49;;;;;;;4.28;1.70;;;19.50;63.20;;;;;;5048179;28;20676;-59
2022/09/21 07:49:14;;;;;;;5.22;1.70;;;19.50;63.20;;;;;;5048312;28;20032;-59
2022/09/21 07:51:40;;;;;;;5.93;1.88;;;19.50;63.20;;;;;;5047828;28;20560;-60
2022/09/21 07:54:08;;;;;;;4.05;1.70;;;19.60;63.20;;;;;;5048076;28;20048;-59
2022/09/21 07:56:35;;;;;;;4.00;1.67;;;19.50;63.20;;;;;;5048406;28;20064;-59
2022/09/21 07:59:07;;;;;;;3.45;1.60;;;19.50;63.20;;;;;;5047267;28;20057;-59
2022/09/21 08:01:34;;;;;;;4.55;1.80;;;19.50;63.10;;;;;;5048144;28;20101;-59
2022/09/21 08:03:59;;;;;;;3.67;1.70;;;19.50;63.10;;;;;;5045930;28;20355;-59
2022/09/21 08:06:28;;;;;;;3.88;1.58;;;19.50;63.20;;;;;;5049479;28;20128;-59
2022/09/21 08:08:53;;;;;;;4.18;1.80;;;19.50;63.10;;;;;;5047230;28;20021;-60
2022/09/21 08:11:21;;;;;;;3.75;1.52;;;19.50;63.10;;;;;;5046917;28;20069;-59
2022/09/21 08:13:57;;;;;;;3.95;1.85;;;19.60;63.40;;;;;;5047980;28;20487;-59
2022/09/21 08:16:22;;;;;;;3.67;1.70;;;19.60;63.10;;;;;;5045020;28;20144;-59
2022/09/21 08:18:50;;;;;;;3.00;1.50;;;19.60;63.10;;;;;;5046870;28;20032;-59
2022/09/21 08:21:15;;;;;;;4.15;1.67;;;19.60;63.20;;;;;;5047802;28;20116;-59
2022/09/21 08:23:41;;;;;;;3.63;1.70;;;19.60;63.20;;;;;;5048660;28;20575;-59
2022/09/21 08:26:08;;;;;;;3.97;1.63;;;19.60;63.10;;;;;;5046690;28;20044;-59
2022/09/21 08:28:35;;;;;;;4.25;1.60;;;19.60;63.20;;;;;;5046831;28;20033;-59
2022/09/21 08:31:04;;;;;;;4.38;1.65;;;19.60;63.10;;;;;;5047677;28;20080;-59
2022/09/21 08:33:31;;;;;;;4.05;1.70;;;19.60;63.10;;;;;;5047391;28;20021;-59
2022/09/21 08:35:58;;;;;;;4.80;1.83;;;19.60;63.10;;;;;;5047953;28;20052;-59
2022/09/21 08:38:24;;;;;;;5.05;1.50;;;19.60;63.00;;;;;;5048179;28;20034;-59
2022/09/21 08:40:50;;;;;;;3.72;1.85;;;19.60;63.00;;;;;;5048806;28;20104;-59
2022/09/21 08:43:42;;;;;;;4.28;1.70;;;19.60;63.10;;;;;;5046055;28;20099;-59
2022/09/21 08:46:16;;;;;;;4.25;1.55;;;19.60;63.00;;;;;;5043938;28;20489;-59
2022/09/21 08:48:47;;;;;;;3.53;1.50;;;19.70;63.00;;;;;;5046977;28;20477;-59
2022/09/21 08:51:17;;;;;;;3.35;1.67;;;19.60;62.90;;;;;;5046512;28;20028;-59
2022/09/21 08:53:44;;;;;;;5.28;1.50;;;19.60;62.90;;;;;;5045864;28;20092;-59
2022/09/21 08:56:13;;;;;;;4.18;1.58;;;19.60;62.90;;;;;;5046213;28;20040;-60
2022/09/21 08:58:41;;;;;;;6.15;1.60;;;19.70;62.90;;;;;;5045242;28;20444;-59
2022/09/21 09:01:13;;;;;;;3.55;1.60;;;19.60;62.80;;;;;;5046133;28;20031;-59
2022/09/21 09:03:59;;;;;;;3.78;1.83;;;19.70;62.90;;;;;;5045811;28;20021;-59
2022/09/21 09:06:50;;;;;;;2.78;1.40;;;19.70;62.90;;;;;;5044591;28;20605;-59
2022/09/21 09:09:40;;;;;;;5.05;1.60;;;19.70;62.90;;;;;;5047402;28;20108;-59
2022/09/21 09:12:27;;;;;;;4.50;1.70;;;19.70;62.90;;;;;;5044925;28;20033;-59
2022/09/21 09:15:05;;;;;;;3.22;1.42;;;19.70;62.80;;;;;;5044701;28;20025;-59
2022/09/21 09:17:45;;;;;;;5.88;1.60;;;19.70;62.70;;;;;;5047161;28;20044;-59
2022/09/21 09:20:25;;;;;;;3.50;1.70;;;19.70;62.70;;;;;;5044955;28;20114;-59
2022/09/21 09:23:09;;;;;;;4.13;1.73;;;19.70;62.70;;;;;;5045851;28;20529;-60
2022/09/21 09:25:39;;;;;;;2.70;1.73;;;19.70;62.70;;;;;;5046856;28;20021;-59
2022/09/21 09:28:31;;;;;;;3.17;1.70;;;19.70;62.60;;;;;;5029606;28;20033;-59
2022/09/21 09:31:03;;;;;;;2.67;1.40;;;19.70;62.60;;;;;;5045090;28;20025;-59
2022/09/21 09:33:48;;;;;;;3.47;1.70;;;19.70;62.60;;;;;;5041984;28;20025;-59
2022/09/21 09:36:13;;;;;;;;;;;19.70;62.60;;;;;;5046527;28;20505;-59
2022/09/21 09:38:44;;;;;;;5.78;1.48;;;19.70;62.60;;;;;;5046022;28;19928;-59
2022/09/21 09:41:33;;;;;;;2.60;1.45;;;19.80;62.60;;;;;;5051526;28;20029;-59
2022/09/21 09:44:13;;;;;;;2.63;1.60;;;19.80;62.60;;;;;;5042664;28;20033;-59
2022/09/21 09:46:54;;;;;;;2.45;1.40;;;19.80;62.50;;;;;;5045139;28;20025;-59
2022/09/21 09:49:30;;;;;;;4.15;1.55;;;19.80;62.50;;;;;;5046501;28;20102;-59
2022/09/21 09:51:56;;;;;;;2.78;1.42;;;19.80;62.50;;;;;;5045615;28;20025;-59
2022/09/21 09:54:23;;;;;;;4.78;1.60;;;19.80;62.50;;;;;;5044764;28;20051;-59
2022/09/21 09:56:49;;;;;;;3.10;1.50;;;19.80;62.40;;;;;;5045498;28;20045;-59
2022/09/21 09:59:26;;;;;;;4.90;1.70;;;19.80;62.40;;;;;;5046030;28;20045;-59
2022/09/21 10:02:21;;;;;;;2.85;1.60;;;19.80;62.40;;;;;;5045396;28;20507;-59
2022/09/21 10:05:07;;;;;;;3.78;1.50;;;19.80;62.40;;;;;;5045216;28;20048;-59
2022/09/21 10:07:51;;;;;;;2.53;1.30;;;19.90;62.40;;;;;;5043459;28;20033;-59
2022/09/21 10:10:27;;;;;;;4.47;1.60;;;19.90;62.30;;;;;;5044156;28;20017;-59
2022/09/21 10:12:53;;;;;;;4.72;1.55;;;19.90;62.30;;;;;;5045386;28;20445;-60
2022/09/21 10:15:19;;;;;;;2.53;1.40;;;19.90;62.30;;;;;;5044387;28;20055;-59
2022/09/21 10:17:45;;;;;;;3.78;1.40;;;19.90;62.30;;;;;;5045562;28;20032;-59
2022/09/21 10:20:19;;;;;;;3.35;1.40;;;19.90;62.30;;;;;;5044465;28;20021;-60
2022/09/21 10:22:46;;;;;;;3.58;1.50;;;19.90;62.30;;;;;;5050280;28;20128;-59
2022/09/21 10:25:15;;;;;;;2.22;1.50;;;19.90;62.20;;;;;;5046473;28;20144;-59
2022/09/21 10:27:43;;;;;;;2.22;1.45;;;19.90;62.20;;;;;;5044077;28;20037;-59
2022/09/21 10:30:29;;;;;;;3.50;1.40;;;20.00;62.20;;;;;;5044709;28;20025;-59
2022/09/21 10:32:55;;;;;;;2.88;1.40;;;20.00;62.20;;;;;;5041124;28;20029;-59
2022/09/21 10:35:21;;;;;;;2.38;1.60;;;20.00;62.10;;;;;;5046594;28;20074;-59
2022/09/21 10:37:53;;;;;;;3.70;1.58;;;20.00;62.10;;;;;;5044914;28;20029;-59
2022/09/21 10:40:18;;;;;;;2.70;1.60;;;20.00;62.00;;;;;;5046788;28;20016;-59
2022/09/21 10:42:44;;;;;;;1.90;1.30;;;20.00;62.00;;;;;;5050128;28;20033;-59
2022/09/21 10:45:15;;;;;;;2.80;1.58;;;20.10;62.00;;;;;;5032514;28;20033;-59
2022/09/21 10:47:47;;;;;;;2.90;1.45;;;20.10;61.90;;;;;;5048296;28;20367;-59
2022/09/21 10:50:27;;;;;;;3.88;1.40;;;20.10;61.90;;;;;;5049737;28;20031;-59
2022/09/21 10:52:59;;;;;;;4.03;1.42;;;20.10;61.80;;;;;;5056930;28;20031;-59
2022/09/21 10:55:27;;;;;;;3.00;1.60;;;20.20;61.90;;;;;;5047394;28;20057;-59
2022/09/21 10:57:52;;;;;;;3.10;1.45;;;20.10;61.60;;;;;;5032120;28;20040;-59
2022/09/21 11:00:24;;;;;;;4.53;1.80;;;20.20;61.60;;;;;;5049005;28;20017;-59
2022/09/21 11:02:50;;;;;;;4.40;1.60;;;20.20;61.50;;;;;;5048778;28;20064;-59
2022/09/21 11:05:37;;;;;;;3.47;1.50;;;20.20;61.50;;;;;;5048855;28;20397;-59
2022/09/21 11:08:21;;;;;;;2.50;1.45;;;20.20;61.50;;;;;;5047088;28;20517;-59
2022/09/21 11:10:58;;;;;;;2.60;1.40;;;20.30;61.60;;;;;;5048685;28;20558;-59
2022/09/21 11:13:28;;;;;;;2.97;1.58;;;20.30;61.60;;;;;;5047648;28;20033;-59
2022/09/21 11:16:12;;;;;;;3.67;1.35;;;20.40;61.50;;;;;;5053181;28;20610;-59
2022/09/21 11:19:04;;;;;;;2.65;1.58;;;20.40;61.50;;;;;;5048756;28;20029;-59
2022/09/21 11:21:39;;;;;;;2.85;1.40;;;20.40;61.50;;;;;;5048123;28;20036;-59
2022/09/21 11:24:07;;;;;;;2.42;1.30;;;20.50;61.30;;;;;;5047401;28;20112;-59
2022/09/21 11:26:43;;;;;;;2.45;1.40;;;20.50;61.30;;;;;;5047001;28;20330;-59
2022/09/21 11:29:18;;;;;;;3.13;1.50;;;20.50;61.10;;;;;;5073576;28;20029;-59
2022/09/21 11:31:54;;;;;;;1.95;1.30;;;20.60;61.20;;;;;;5048141;28;20029;-59
2022/09/21 11:34:32;;;;;;;3.78;1.60;;;20.60;61.10;;;;;;5047510;28;20067;-59
2022/09/21 11:37:16;;;;;;;3.50;1.70;;;20.60;60.90;;;;;;5046293;28;20045;-59
2022/09/21 11:40:05;;;;;;;2.53;1.50;;;20.70;61.00;;;;;;5046677;28;20077;-59
2022/09/21 11:42:43;;;;;;;2.78;1.40;;;20.70;60.90;;;;;;5048664;28;20024;-59
2022/09/21 11:45:27;;;;;;;2.47;1.45;;;20.70;60.90;;;;;;5048163;28;20025;-59
2022/09/21 11:48:10;;;;;;;2.73;1.30;;;20.70;60.80;;;;;;5047991;28;20109;-59
2022/09/21 11:51:01;;;;;;;4.90;1.70;;;20.70;61.00;;;;;;5044910;28;20125;-59
2022/09/21 11:53:56;;;;;;;2.78;1.50;;;20.70;60.90;;;;;;5046704;28;20036;-59
2022/09/21 11:56:29;;;;;;;3.63;1.40;;;20.70;60.70;;;;;;5046023;28;20046;-59
2022/09/21 11:59:05;;;;;;;2.33;1.42;;;20.80;60.60;;;;;;5046430;28;20024;-59
2022/09/21 12:01:37;;;;;;;;;;;20.80;60.60;;;;;;5044566;28;20057;-59
2022/09/21 12:04:06;;;;;;;3.47;1.50;;;20.90;60.50;;;;;;5048653;28;19928;-59
2022/09/21 12:06:36;;;;;;;2.40;1.40;;;20.90;60.40;;;;;;5047706;28;20025;-59
2022/09/21 12:09:36;;;;;;;2.75;1.45;;;20.90;60.60;;;;;;5042888;28;20041;-59
2022/09/21 12:12:18;;;;;;;4.22;1.65;;;20.80;60.50;;;;;;5046164;28;20029;-59
2022/09/21 12:15:31;;;;;;;3.33;1.60;;;20.80;60.60;;;;;;5044466;28;20497;-59
2022/09/21 12:18:07;;;;;;;3.53;1.40;;;20.80;60.80;;;;;;5043746;28;20107;-59
2022/09/21 12:21:05;;;;;;;2.67;1.40;;;20.80;62.40;;;;;;5031752;28;20025;-59
2022/09/21 12:23:41;;;;;;;2.90;1.40;;;21.00;61.30;;;;;;5039604;28;20032;-59
2022/09/21 12:26:07;;;;;;;4.25;1.42;;;21.10;60.90;;;;;;5051969;28;20406;-59
2022/09/21 12:28:40;;;;;;;2.95;1.40;;;21.20;60.80;;;;;;5042345;28;20033;-59
2022/09/21 12:31:17;;;;;;;2.83;1.50;;;21.20;60.60;;;;;;5039702;28;20040;-59
2022/09/21 12:33:48;;;;;;;2.60;1.60;;;21.30;60.50;;;;;;5026318;28;20516;-59
2022/09/21 12:36:38;;;;;;;5.82;1.50;;;21.30;60.20;;;;;;5036959;28;20032;-59
2022/09/21 12:39:31;;;;;;;5.72;1.67;;;21.40;60.20;;;;;;5042063;28;20055;-59
2022/09/21 12:42:28;;;;;;;5.03;2.22;;;21.30;60.20;;;;;;5043322;28;20025;-59
2022/09/21 12:45:02;;;;;;;9.25;2.67;;;21.20;59.30;;;;;;5042824;28;20037;-59
2022/09/21 12:47:35;;;;;;;5.72;2.00;;;21.20;58.60;;;;;;5046438;28;20055;-59
2022/09/21 12:50:33;;;;;;;5.18;2.00;;;21.30;59.00;;;;;;5046449;28;20036;-59
2022/09/21 12:53:02;;;;;;;6.30;2.22;;;21.30;59.00;;;;;;5044669;28;20041;-59
2022/09/21 12:55:32;;;;;;;6.88;2.35;;;21.40;58.80;;;;;;5041473;28;20048;-60
2022/09/21 12:58:00;;;;;;;5.68;1.85;;;21.50;58.90;;;;;;5047681;28;20028;-59
2022/09/21 13:00:30;;;;;;;3.70;1.77;;;21.50;58.90;;;;;;5047054;28;20112;-59
2022/09/21 13:03:07;;;;;;;5.28;1.90;;;21.60;58.90;;;;;;5045436;28;20063;-59
2022/09/21 13:05:42;;;;;;;4.20;1.60;;;21.70;59.00;;;;;;5040197;28;20037;-60
2022/09/21 13:08:13;;;;;;;5.30;2.05;;;21.70;59.00;;;;;;5028030;28;20116;-59
2022/09/21 13:10:43;;;;;;;5.20;1.80;;;21.80;58.90;;;;;;5046135;28;20402;-59
2022/09/21 13:13:18;;;;;;;7.43;1.98;;;21.80;58.90;;;;;;5045033;28;20025;-59